sensor_id;sensor_type;location;lat;lon;timestamp;P1;durP1;ratioP1;P2;durP2;ratioP2
36691;SDS011;22678;52.052;4.242;2023-11-21T00:00:20;5.28;;;0.70;;
36691;SDS011;22678;52.052;4.242;2023-11-21T00:02:46;2.53;;;0.68;;
36691;SDS011;22678;52.052;4.242;2023-11-21T00:05:12;5.85;;;1.25;;
36691;SDS011;22678;52.052;4.242;2023-11-21T00:07:41;9.80;;;0.90;;
36691;SDS011;22678;52.052;4.242;2023-11-21T00:10:07;2.35;;;0.98;;
36691;SDS011;22678;52.052;4.242;2023-11-21T00:12:35;7.13;;;2.30;;
36691;SDS011;22678;52.052;4.242;2023-11-21T00:15:00;4.88;;;0.73;;
36691;SDS011;22678;52.052;4.242;2023-11-21T00:17:26;5.78;;;2.90;;
36691;SDS011;22678;52.052;4.242;2023-11-21T00:19:52;6.00;;;0.88;;
36691;SDS011;22678;52.052;4.242;2023-11-21T00:22:17;7.80;;;1.48;;
36691;SDS011;22678;52.052;4.242;2023-11-21T00:24:43;5.85;;;0.93;;
36691;SDS011;22678;52.052;4.242;2023-11-21T00:27:09;7.38;;;1.05;;
36691;SDS011;22678;52.052;4.242;2023-11-21T00:29:34;11.70;;;0.65;;
36691;SDS011;22678;52.052;4.242;2023-11-21T00:31:59;2.92;;;0.63;;
36691;SDS011;22678;52.052;4.242;2023-11-21T00:34:25;1.73;;;0.47;;
36691;SDS011;22678;52.052;4.242;2023-11-21T00:36:50;2.85;;;0.55;;
36691;SDS011;22678;52.052;4.242;2023-11-21T00:39:15;5.45;;;0.50;;
36691;SDS011;22678;52.052;4.242;2023-11-21T00:41:40;6.40;;;1.17;;
36691;SDS011;22678;52.052;4.242;2023-11-21T01:04:18;4.80;;;0.73;;
36691;SDS011;22678;52.052;4.242;2023-11-21T01:06:43;4.32;;;0.80;;
36691;SDS011;22678;52.052;4.242;2023-11-21T01:09:08;3.95;;;0.98;;
36691;SDS011;22678;52.052;4.242;2023-11-21T01:11:34;4.18;;;0.80;;
36691;SDS011;22678;52.052;4.242;2023-11-21T01:14:02;4.53;;;1.45;;
36691;SDS011;22678;52.052;4.242;2023-11-21T01:16:28;4.20;;;0.50;;
36691;SDS011;22678;52.052;4.242;2023-11-21T01:18:54;7.55;;;1.33;;
36691;SDS011;22678;52.052;4.242;2023-11-21T01:21:19;5.38;;;0.90;;
36691;SDS011;22678;52.052;4.242;2023-11-21T01:23:44;6.18;;;0.40;;
36691;SDS011;22678;52.052;4.242;2023-11-21T01:26:10;2.63;;;0.40;;
36691;SDS011;22678;52.052;4.242;2023-11-21T01:28:35;2.67;;;0.50;;
36691;SDS011;22678;52.052;4.242;2023-11-21T01:31:00;2.38;;;1.75;;
36691;SDS011;22678;52.052;4.242;2023-11-21T01:33:25;2.15;;;0.63;;
36691;SDS011;22678;52.052;4.242;2023-11-21T01:35:51;2.53;;;0.50;;
36691;SDS011;22678;52.052;4.242;2023-11-21T01:38:20;5.57;;;0.30;;
36691;SDS011;22678;52.052;4.242;2023-11-21T01:40:45;5.55;;;0.40;;
36691;SDS011;22678;52.052;4.242;2023-11-21T01:43:11;4.28;;;0.30;;
36691;SDS011;22678;52.052;4.242;2023-11-21T01:45:36;1.98;;;0.70;;
36691;SDS011;22678;52.052;4.242;2023-11-21T01:48:02;3.33;;;0.40;;
36691;SDS011;22678;52.052;4.242;2023-11-21T01:50:28;5.05;;;0.50;;
36691;SDS011;22678;52.052;4.242;2023-11-21T01:52:54;5.68;;;0.75;;
36691;SDS011;22678;52.052;4.242;2023-11-21T01:55:20;0.90;;;0.30;;
36691;SDS011;22678;52.052;4.242;2023-11-21T01:57:46;1.48;;;0.30;;
36691;SDS011;22678;52.052;4.242;2023-11-21T02:00:12;3.15;;;0.40;;
36691;SDS011;22678;52.052;4.242;2023-11-21T02:02:50;3.25;;;0.40;;
36691;SDS011;22678;52.052;4.242;2023-11-21T02:05:17;3.53;;;0.35;;
36691;SDS011;22678;52.052;4.242;2023-11-21T02:10:14;1.88;;;0.43;;
36691;SDS011;22678;52.052;4.242;2023-11-21T02:12:40;1.20;;;0.20;;
36691;SDS011;22678;52.052;4.242;2023-11-21T02:15:07;3.97;;;0.40;;
36691;SDS011;22678;52.052;4.242;2023-11-21T02:17:40;2.47;;;0.50;;
36691;SDS011;22678;52.052;4.242;2023-11-21T02:20:08;4.00;;;0.30;;
36691;SDS011;22678;52.052;4.242;2023-11-21T02:22:40;5.30;;;0.40;;
36691;SDS011;22678;52.052;4.242;2023-11-21T02:25:07;4.97;;;0.90;;
36691;SDS011;22678;52.052;4.242;2023-11-21T02:27:33;4.82;;;1.38;;
36691;SDS011;22678;52.052;4.242;2023-11-21T02:29:58;2.92;;;0.43;;
36691;SDS011;22678;52.052;4.242;2023-11-21T02:32:25;4.97;;;0.90;;
36691;SDS011;22678;52.052;4.242;2023-11-21T02:34:51;3.20;;;0.85;;
36691;SDS011;22678;52.052;4.242;2023-11-21T02:37:16;5.53;;;0.57;;
36691;SDS011;22678;52.052;4.242;2023-11-21T02:39:42;2.88;;;0.88;;
36691;SDS011;22678;52.052;4.242;2023-11-21T02:42:07;5.97;;;0.60;;
36691;SDS011;22678;52.052;4.242;2023-11-21T02:44:32;4.55;;;0.60;;
36691;SDS011;22678;52.052;4.242;2023-11-21T02:46:58;3.70;;;1.55;;
36691;SDS011;22678;52.052;4.242;2023-11-21T02:49:25;6.60;;;1.08;;
36691;SDS011;22678;52.052;4.242;2023-11-21T02:51:53;3.45;;;1.98;;
36691;SDS011;22678;52.052;4.242;2023-11-21T02:54:19;7.55;;;1.15;;
36691;SDS011;22678;52.052;4.242;2023-11-21T02:56:46;3.35;;;1.05;;
36691;SDS011;22678;52.052;4.242;2023-11-21T02:59:12;2.42;;;1.02;;
36691;SDS011;22678;52.052;4.242;2023-11-21T03:01:37;4.25;;;0.88;;
36691;SDS011;22678;52.052;4.242;2023-11-21T03:04:02;2.88;;;0.80;;
36691;SDS011;22678;52.052;4.242;2023-11-21T03:06:28;4.90;;;0.98;;
36691;SDS011;22678;52.052;4.242;2023-11-21T03:08:53;8.40;;;1.42;;
36691;SDS011;22678;52.052;4.242;2023-11-21T03:11:19;5.13;;;0.90;;
36691;SDS011;22678;52.052;4.242;2023-11-21T03:13:44;2.63;;;0.68;;
36691;SDS011;22678;52.052;4.242;2023-11-21T03:16:10;2.60;;;0.75;;
36691;SDS011;22678;52.052;4.242;2023-11-21T03:18:39;2.85;;;0.60;;
36691;SDS011;22678;52.052;4.242;2023-11-21T03:21:05;7.35;;;1.00;;
36691;SDS011;22678;52.052;4.242;2023-11-21T03:23:32;4.35;;;1.00;;
36691;SDS011;22678;52.052;4.242;2023-11-21T03:25:58;6.60;;;0.70;;
36691;SDS011;22678;52.052;4.242;2023-11-21T03:28:24;3.58;;;1.30;;
36691;SDS011;22678;52.052;4.242;2023-11-21T03:30:50;1.70;;;0.50;;
36691;SDS011;22678;52.052;4.242;2023-11-21T03:33:15;2.10;;;0.50;;
36691;SDS011;22678;52.052;4.242;2023-11-21T03:35:40;4.07;;;0.98;;
36691;SDS011;22678;52.052;4.242;2023-11-21T03:38:07;3.10;;;1.02;;
36691;SDS011;22678;52.052;4.242;2023-11-21T03:40:32;0.90;;;0.10;;
36691;SDS011;22678;52.052;4.242;2023-11-21T03:42:58;3.00;;;0.50;;
36691;SDS011;22678;52.052;4.242;2023-11-21T03:45:23;5.22;;;0.40;;
36691;SDS011;22678;52.052;4.242;2023-11-21T03:47:49;4.72;;;1.05;;
36691;SDS011;22678;52.052;4.242;2023-11-21T03:50:15;1.35;;;0.10;;
36691;SDS011;22678;52.052;4.242;2023-11-21T03:52:40;0.50;;;0.20;;
36691;SDS011;22678;52.052;4.242;2023-11-21T03:55:06;2.17;;;0.13;;
36691;SDS011;22678;52.052;4.242;2023-11-21T03:57:31;1.15;;;0.20;;
36691;SDS011;22678;52.052;4.242;2023-11-21T03:59:56;0.52;;;0.10;;
36691;SDS011;22678;52.052;4.242;2023-11-21T04:02:22;2.50;;;0.20;;
36691;SDS011;22678;52.052;4.242;2023-11-21T04:04:47;1.02;;;0.10;;
36691;SDS011;22678;52.052;4.242;2023-11-21T04:07:12;1.63;;;0.10;;
36691;SDS011;22678;52.052;4.242;2023-11-21T04:09:38;1.58;;;0.10;;
36691;SDS011;22678;52.052;4.242;2023-11-21T04:12:04;1.40;;;0.20;;
36691;SDS011;22678;52.052;4.242;2023-11-21T04:14:30;1.58;;;0.13;;
36691;SDS011;22678;52.052;4.242;2023-11-21T04:16:55;0.85;;;0.10;;
36691;SDS011;22678;52.052;4.242;2023-11-21T04:19:20;0.93;;;0.00;;
36691;SDS011;22678;52.052;4.242;2023-11-21T04:21:46;0.70;;;0.10;;
36691;SDS011;22678;52.052;4.242;2023-11-21T04:24:11;2.08;;;0.10;;
36691;SDS011;22678;52.052;4.242;2023-11-21T04:26:36;2.33;;;0.13;;
36691;SDS011;22678;52.052;4.242;2023-11-21T04:29:02;0.63;;;0.10;;
36691;SDS011;22678;52.052;4.242;2023-11-21T04:31:27;0.98;;;0.30;;
36691;SDS011;22678;52.052;4.242;2023-11-21T04:33:53;1.38;;;0.20;;
36691;SDS011;22678;52.052;4.242;2023-11-21T04:36:18;2.92;;;0.20;;
36691;SDS011;22678;52.052;4.242;2023-11-21T04:38:44;0.73;;;0.15;;
36691;SDS011;22678;52.052;4.242;2023-11-21T04:41:10;1.85;;;0.15;;
36691;SDS011;22678;52.052;4.242;2023-11-21T04:43:36;1.13;;;0.15;;
36691;SDS011;22678;52.052;4.242;2023-11-21T04:46:02;0.20;;;0.00;;
36691;SDS011;22678;52.052;4.242;2023-11-21T04:48:27;2.22;;;0.10;;
36691;SDS011;22678;52.052;4.242;2023-11-21T04:50:52;2.60;;;0.10;;
36691;SDS011;22678;52.052;4.242;2023-11-21T04:53:18;1.33;;;0.20;;
36691;SDS011;22678;52.052;4.242;2023-11-21T04:55:43;0.05;;;0.00;;
36691;SDS011;22678;52.052;4.242;2023-11-21T04:58:09;0.13;;;0.00;;
36691;SDS011;22678;52.052;4.242;2023-11-21T05:00:34;0.52;;;0.10;;
36691;SDS011;22678;52.052;4.242;2023-11-21T05:03:01;0.43;;;0.10;;
36691;SDS011;22678;52.052;4.242;2023-11-21T05:05:27;1.02;;;0.10;;
36691;SDS011;22678;52.052;4.242;2023-11-21T05:07:52;0.90;;;0.10;;
36691;SDS011;22678;52.052;4.242;2023-11-21T05:10:18;0.30;;;0.10;;
36691;SDS011;22678;52.052;4.242;2023-11-21T05:12:44;0.80;;;0.10;;
36691;SDS011;22678;52.052;4.242;2023-11-21T05:15:10;1.45;;;0.00;;
36691;SDS011;22678;52.052;4.242;2023-11-21T05:17:39;0.32;;;0.10;;
36691;SDS011;22678;52.052;4.242;2023-11-21T05:20:09;0.45;;;0.10;;
36691;SDS011;22678;52.052;4.242;2023-11-21T05:22:36;0.38;;;0.08;;
36691;SDS011;22678;52.052;4.242;2023-11-21T05:25:02;0.22;;;0.10;;
36691;SDS011;22678;52.052;4.242;2023-11-21T05:27:29;0.10;;;0.03;;
36691;SDS011;22678;52.052;4.242;2023-11-21T05:29:55;1.02;;;0.25;;
36691;SDS011;22678;52.052;4.242;2023-11-21T05:32:21;1.75;;;0.35;;
36691;SDS011;22678;52.052;4.242;2023-11-21T05:34:47;0.52;;;0.20;;
36691;SDS011;22678;52.052;4.242;2023-11-21T05:37:13;1.17;;;0.10;;
36691;SDS011;22678;52.052;4.242;2023-11-21T05:39:38;1.00;;;0.20;;
36691;SDS011;22678;52.052;4.242;2023-11-21T05:42:03;2.03;;;0.93;;
36691;SDS011;22678;52.052;4.242;2023-11-21T05:44:29;2.67;;;0.20;;
36691;SDS011;22678;52.052;4.242;2023-11-21T05:46:54;0.60;;;0.15;;
36691;SDS011;22678;52.052;4.242;2023-11-21T05:49:20;2.90;;;0.30;;
36691;SDS011;22678;52.052;4.242;2023-11-21T05:51:48;0.90;;;0.20;;
36691;SDS011;22678;52.052;4.242;2023-11-21T05:54:13;3.25;;;0.90;;
36691;SDS011;22678;52.052;4.242;2023-11-21T05:56:39;3.17;;;0.20;;
36691;SDS011;22678;52.052;4.242;2023-11-21T05:59:04;2.58;;;0.30;;
36691;SDS011;22678;52.052;4.242;2023-11-21T06:01:29;1.23;;;0.75;;
36691;SDS011;22678;52.052;4.242;2023-11-21T06:03:54;0.43;;;0.10;;
36691;SDS011;22678;52.052;4.242;2023-11-21T06:06:20;1.38;;;0.20;;
36691;SDS011;22678;52.052;4.242;2023-11-21T06:08:48;0.52;;;0.10;;
36691;SDS011;22678;52.052;4.242;2023-11-21T06:11:13;1.45;;;0.22;;
36691;SDS011;22678;52.052;4.242;2023-11-21T06:13:39;2.97;;;0.35;;
36691;SDS011;22678;52.052;4.242;2023-11-21T06:16:04;0.75;;;0.20;;
36691;SDS011;22678;52.052;4.242;2023-11-21T06:18:30;14.38;;;5.07;;
36691;SDS011;22678;52.052;4.242;2023-11-21T06:20:56;9.73;;;3.40;;
36691;SDS011;22678;52.052;4.242;2023-11-21T06:23:21;21.30;;;9.70;;
36691;SDS011;22678;52.052;4.242;2023-11-21T06:25:46;21.23;;;7.47;;
36691;SDS011;22678;52.052;4.242;2023-11-21T06:28:11;5.93;;;1.67;;
36691;SDS011;22678;52.052;4.242;2023-11-21T06:30:37;7.18;;;1.13;;
36691;SDS011;22678;52.052;4.242;2023-11-21T06:33:03;4.47;;;1.10;;
36691;SDS011;22678;52.052;4.242;2023-11-21T06:35:28;8.05;;;1.08;;
36691;SDS011;22678;52.052;4.242;2023-11-21T06:37:55;6.25;;;1.45;;
36691;SDS011;22678;52.052;4.242;2023-11-21T06:40:20;8.00;;;1.83;;
36691;SDS011;22678;52.052;4.242;2023-11-21T06:42:46;5.18;;;1.60;;
36691;SDS011;22678;52.052;4.242;2023-11-21T06:45:12;5.53;;;1.63;;
36691;SDS011;22678;52.052;4.242;2023-11-21T06:47:37;7.28;;;1.63;;
36691;SDS011;22678;52.052;4.242;2023-11-21T06:50:03;4.85;;;1.05;;
36691;SDS011;22678;52.052;4.242;2023-11-21T06:52:29;6.78;;;1.83;;
36691;SDS011;22678;52.052;4.242;2023-11-21T06:54:54;11.10;;;2.38;;
36691;SDS011;22678;52.052;4.242;2023-11-21T06:57:20;7.82;;;1.77;;
36691;SDS011;22678;52.052;4.242;2023-11-21T06:59:47;12.85;;;1.63;;
36691;SDS011;22678;52.052;4.242;2023-11-21T07:02:13;7.00;;;1.73;;
36691;SDS011;22678;52.052;4.242;2023-11-21T07:04:39;5.00;;;1.30;;
36691;SDS011;22678;52.052;4.242;2023-11-21T07:07:06;3.95;;;1.85;;
36691;SDS011;22678;52.052;4.242;2023-11-21T07:09:34;7.25;;;1.30;;
36691;SDS011;22678;52.052;4.242;2023-11-21T07:12:00;6.13;;;1.00;;
36691;SDS011;22678;52.052;4.242;2023-11-21T07:14:26;11.80;;;1.92;;
36691;SDS011;22678;52.052;4.242;2023-11-21T07:16:51;12.50;;;1.67;;
36691;SDS011;22678;52.052;4.242;2023-11-21T07:19:17;4.90;;;1.55;;
36691;SDS011;22678;52.052;4.242;2023-11-21T07:21:43;4.65;;;1.75;;
36691;SDS011;22678;52.052;4.242;2023-11-21T07:24:08;5.85;;;0.88;;
36691;SDS011;22678;52.052;4.242;2023-11-21T07:26:34;7.38;;;1.70;;
36691;SDS011;22678;52.052;4.242;2023-11-21T07:29:00;11.07;;;0.90;;
36691;SDS011;22678;52.052;4.242;2023-11-21T07:31:26;5.68;;;1.33;;
36691;SDS011;22678;52.052;4.242;2023-11-21T07:33:52;5.45;;;0.70;;
36691;SDS011;22678;52.052;4.242;2023-11-21T07:36:17;10.75;;;2.05;;
36691;SDS011;22678;52.052;4.242;2023-11-21T07:38:45;5.72;;;1.13;;
36691;SDS011;22678;52.052;4.242;2023-11-21T07:41:11;3.15;;;0.85;;
36691;SDS011;22678;52.052;4.242;2023-11-21T07:43:40;10.20;;;1.98;;
36691;SDS011;22678;52.052;4.242;2023-11-21T07:46:06;4.93;;;1.02;;
36691;SDS011;22678;52.052;4.242;2023-11-21T07:48:31;11.32;;;1.05;;
36691;SDS011;22678;52.052;4.242;2023-11-21T07:50:57;6.18;;;1.48;;
36691;SDS011;22678;52.052;4.242;2023-11-21T07:53:26;7.57;;;0.82;;
36691;SDS011;22678;52.052;4.242;2023-11-21T07:55:53;7.57;;;1.20;;
36691;SDS011;22678;52.052;4.242;2023-11-21T07:58:19;14.82;;;2.20;;
36691;SDS011;22678;52.052;4.242;2023-11-21T08:00:45;8.07;;;1.10;;
36691;SDS011;22678;52.052;4.242;2023-11-21T08:03:10;14.35;;;1.33;;
36691;SDS011;22678;52.052;4.242;2023-11-21T08:05:36;10.23;;;2.13;;
36691;SDS011;22678;52.052;4.242;2023-11-21T08:08:01;7.70;;;0.52;;
36691;SDS011;22678;52.052;4.242;2023-11-21T08:10:27;3.88;;;1.23;;
36691;SDS011;22678;52.052;4.242;2023-11-21T08:12:52;10.98;;;2.10;;
36691;SDS011;22678;52.052;4.242;2023-11-21T08:15:18;5.35;;;2.25;;
36691;SDS011;22678;52.052;4.242;2023-11-21T08:17:44;9.52;;;1.70;;
36691;SDS011;22678;52.052;4.242;2023-11-21T08:20:09;8.00;;;1.60;;
36691;SDS011;22678;52.052;4.242;2023-11-21T08:22:35;5.05;;;0.93;;
36691;SDS011;22678;52.052;4.242;2023-11-21T08:25:01;13.05;;;1.60;;
36691;SDS011;22678;52.052;4.242;2023-11-21T08:27:29;6.35;;;1.35;;
36691;SDS011;22678;52.052;4.242;2023-11-21T08:29:54;5.03;;;1.35;;
36691;SDS011;22678;52.052;4.242;2023-11-21T08:32:21;8.23;;;1.23;;
36691;SDS011;22678;52.052;4.242;2023-11-21T08:34:47;5.97;;;1.25;;
36691;SDS011;22678;52.052;4.242;2023-11-21T08:37:15;6.78;;;1.00;;
36691;SDS011;22678;52.052;4.242;2023-11-21T08:39:41;4.50;;;1.25;;
36691;SDS011;22678;52.052;4.242;2023-11-21T08:42:07;2.97;;;0.50;;
36691;SDS011;22678;52.052;4.242;2023-11-21T08:44:33;9.30;;;1.58;;
36691;SDS011;22678;52.052;4.242;2023-11-21T08:46:58;9.43;;;1.67;;
36691;SDS011;22678;52.052;4.242;2023-11-21T08:49:23;13.68;;;2.40;;
36691;SDS011;22678;52.052;4.242;2023-11-21T08:51:51;4.07;;;0.98;;
36691;SDS011;22678;52.052;4.242;2023-11-21T08:54:16;6.30;;;0.95;;
36691;SDS011;22678;52.052;4.242;2023-11-21T08:56:43;5.53;;;0.82;;
36691;SDS011;22678;52.052;4.242;2023-11-21T08:59:08;3.45;;;0.65;;
36691;SDS011;22678;52.052;4.242;2023-11-21T09:01:34;6.53;;;1.40;;
36691;SDS011;22678;52.052;4.242;2023-11-21T09:03:59;5.82;;;1.02;;
36691;SDS011;22678;52.052;4.242;2023-11-21T09:06:24;4.35;;;0.60;;
36691;SDS011;22678;52.052;4.242;2023-11-21T09:08:50;8.85;;;1.48;;
36691;SDS011;22678;52.052;4.242;2023-11-21T09:11:15;6.85;;;1.60;;
36691;SDS011;22678;52.052;4.242;2023-11-21T09:13:41;7.18;;;0.70;;
36691;SDS011;22678;52.052;4.242;2023-11-21T09:16:07;4.13;;;2.00;;
36691;SDS011;22678;52.052;4.242;2023-11-21T09:18:32;2.42;;;0.57;;
36691;SDS011;22678;52.052;4.242;2023-11-21T09:20:57;11.07;;;2.40;;
36691;SDS011;22678;52.052;4.242;2023-11-21T09:23:23;6.97;;;2.50;;
36691;SDS011;22678;52.052;4.242;2023-11-21T09:25:49;7.43;;;0.85;;
36691;SDS011;22678;52.052;4.242;2023-11-21T09:28:15;12.00;;;2.97;;
36691;SDS011;22678;52.052;4.242;2023-11-21T09:30:40;5.57;;;0.75;;
36691;SDS011;22678;52.052;4.242;2023-11-21T09:33:06;3.20;;;0.45;;
36691;SDS011;22678;52.052;4.242;2023-11-21T09:35:31;6.28;;;0.70;;
36691;SDS011;22678;52.052;4.242;2023-11-21T09:37:57;5.65;;;1.02;;
36691;SDS011;22678;52.052;4.242;2023-11-21T09:40:22;8.05;;;1.00;;
36691;SDS011;22678;52.052;4.242;2023-11-21T09:45:25;5.07;;;1.10;;
36691;SDS011;22678;52.052;4.242;2023-11-21T09:47:56;7.07;;;1.05;;
36691;SDS011;22678;52.052;4.242;2023-11-21T09:50:22;3.10;;;0.98;;
36691;SDS011;22678;52.052;4.242;2023-11-21T09:55:22;6.97;;;1.30;;
36691;SDS011;22678;52.052;4.242;2023-11-21T09:57:52;4.20;;;1.50;;
36691;SDS011;22678;52.052;4.242;2023-11-21T10:00:19;3.80;;;0.82;;
36691;SDS011;22678;52.052;4.242;2023-11-21T10:02:48;5.43;;;1.50;;
36691;SDS011;22678;52.052;4.242;2023-11-21T10:05:15;4.43;;;0.77;;
36691;SDS011;22678;52.052;4.242;2023-11-21T10:07:43;4.40;;;0.90;;
36691;SDS011;22678;52.052;4.242;2023-11-21T10:10:09;11.18;;;2.40;;
36691;SDS011;22678;52.052;4.242;2023-11-21T10:12:35;18.20;;;1.20;;
36691;SDS011;22678;52.052;4.242;2023-11-21T10:15:03;4.05;;;1.55;;
36691;SDS011;22678;52.052;4.242;2023-11-21T10:17:32;14.77;;;2.25;;
36691;SDS011;22678;52.052;4.242;2023-11-21T10:20:08;6.05;;;2.15;;
36691;SDS011;22678;52.052;4.242;2023-11-21T10:22:37;5.20;;;1.35;;
36691;SDS011;22678;52.052;4.242;2023-11-21T10:25:06;3.80;;;0.93;;
36691;SDS011;22678;52.052;4.242;2023-11-21T10:27:33;5.82;;;2.20;;
36691;SDS011;22678;52.052;4.242;2023-11-21T10:30:00;3.33;;;1.65;;
36691;SDS011;22678;52.052;4.242;2023-11-21T10:32:32;7.18;;;1.27;;
36691;SDS011;22678;52.052;4.242;2023-11-21T10:34:58;7.97;;;1.77;;
36691;SDS011;22678;52.052;4.242;2023-11-21T10:37:31;5.72;;;1.67;;
36691;SDS011;22678;52.052;4.242;2023-11-21T10:39:58;4.05;;;0.95;;
36691;SDS011;22678;52.052;4.242;2023-11-21T10:42:23;5.45;;;2.15;;
36691;SDS011;22678;52.052;4.242;2023-11-21T10:44:49;3.30;;;1.20;;
36691;SDS011;22678;52.052;4.242;2023-11-21T10:47:15;6.82;;;1.33;;
36691;SDS011;22678;52.052;4.242;2023-11-21T10:49:44;6.95;;;1.42;;
36691;SDS011;22678;52.052;4.242;2023-11-21T10:52:10;5.70;;;1.77;;
36691;SDS011;22678;52.052;4.242;2023-11-21T10:54:42;5.13;;;1.45;;
36691;SDS011;22678;52.052;4.242;2023-11-21T10:57:07;7.95;;;1.40;;
36691;SDS011;22678;52.052;4.242;2023-11-21T10:59:33;7.88;;;1.27;;
36691;SDS011;22678;52.052;4.242;2023-11-21T11:02:00;5.43;;;1.48;;
36691;SDS011;22678;52.052;4.242;2023-11-21T11:04:28;5.30;;;2.10;;
36691;SDS011;22678;52.052;4.242;2023-11-21T11:06:57;12.48;;;1.25;;
36691;SDS011;22678;52.052;4.242;2023-11-21T11:09:26;8.10;;;1.95;;
36691;SDS011;22678;52.052;4.242;2023-11-21T11:11:52;3.05;;;1.17;;
36691;SDS011;22678;52.052;4.242;2023-11-21T11:14:19;8.02;;;1.70;;
36691;SDS011;22678;52.052;4.242;2023-11-21T11:16:45;5.95;;;1.45;;
36691;SDS011;22678;52.052;4.242;2023-11-21T11:19:10;6.10;;;1.85;;
36691;SDS011;22678;52.052;4.242;2023-11-21T11:24:13;6.07;;;1.77;;
36691;SDS011;22678;52.052;4.242;2023-11-21T11:34:30;7.93;;;2.70;;
36691;SDS011;22678;52.052;4.242;2023-11-21T11:37:00;7.90;;;1.77;;
36691;SDS011;22678;52.052;4.242;2023-11-21T11:39:30;5.88;;;2.58;;
36691;SDS011;22678;52.052;4.242;2023-11-21T11:42:01;11.32;;;2.22;;
36691;SDS011;22678;52.052;4.242;2023-11-21T11:47:13;8.15;;;3.15;;
36691;SDS011;22678;52.052;4.242;2023-11-21T11:50:02;6.00;;;2.75;;
36691;SDS011;22678;52.052;4.242;2023-11-21T11:52:48;11.10;;;4.57;;
36691;SDS011;22678;52.052;4.242;2023-11-21T11:55:16;5.57;;;1.77;;
36691;SDS011;22678;52.052;4.242;2023-11-21T11:57:50;6.22;;;1.52;;
36691;SDS011;22678;52.052;4.242;2023-11-21T12:00:19;7.43;;;2.25;;
36691;SDS011;22678;52.052;4.242;2023-11-21T12:02:52;5.60;;;2.13;;
36691;SDS011;22678;52.052;4.242;2023-11-21T12:05:28;4.18;;;1.83;;
36691;SDS011;22678;52.052;4.242;2023-11-21T12:07:59;4.97;;;0.88;;
36691;SDS011;22678;52.052;4.242;2023-11-21T12:12:55;6.50;;;1.02;;
36691;SDS011;22678;52.052;4.242;2023-11-21T12:15:23;1.90;;;0.60;;
36691;SDS011;22678;52.052;4.242;2023-11-21T12:17:48;3.45;;;1.25;;
36691;SDS011;22678;52.052;4.242;2023-11-21T12:20:15;3.53;;;1.30;;
36691;SDS011;22678;52.052;4.242;2023-11-21T12:22:44;4.97;;;1.70;;
36691;SDS011;22678;52.052;4.242;2023-11-21T12:25:15;3.20;;;0.90;;
36691;SDS011;22678;52.052;4.242;2023-11-21T12:27:54;4.40;;;1.75;;
36691;SDS011;22678;52.052;4.242;2023-11-21T12:30:21;3.22;;;1.20;;
36691;SDS011;22678;52.052;4.242;2023-11-21T12:32:48;2.95;;;1.17;;
36691;SDS011;22678;52.052;4.242;2023-11-21T12:35:16;3.45;;;0.80;;
36691;SDS011;22678;52.052;4.242;2023-11-21T12:37:44;4.15;;;1.90;;
36691;SDS011;22678;52.052;4.242;2023-11-21T12:40:11;3.67;;;1.20;;
36691;SDS011;22678;52.052;4.242;2023-11-21T12:42:46;3.95;;;0.95;;
36691;SDS011;22678;52.052;4.242;2023-11-21T12:47:42;2.97;;;0.88;;
36691;SDS011;22678;52.052;4.242;2023-11-21T12:50:10;5.35;;;1.65;;
36691;SDS011;22678;52.052;4.242;2023-11-21T12:52:45;3.60;;;1.10;;
36691;SDS011;22678;52.052;4.242;2023-11-21T12:55:18;3.70;;;0.90;;
36691;SDS011;22678;52.052;4.242;2023-11-21T12:57:44;3.65;;;0.70;;
36691;SDS011;22678;52.052;4.242;2023-11-21T13:00:11;4.55;;;1.83;;
36691;SDS011;22678;52.052;4.242;2023-11-21T13:02:49;7.85;;;1.10;;
36691;SDS011;22678;52.052;4.242;2023-11-21T13:05:22;4.38;;;0.88;;
36691;SDS011;22678;52.052;4.242;2023-11-21T13:07:59;5.20;;;1.02;;
36691;SDS011;22678;52.052;4.242;2023-11-21T13:10:28;7.03;;;2.10;;
36691;SDS011;22678;52.052;4.242;2023-11-21T13:12:56;6.10;;;2.75;;
36691;SDS011;22678;52.052;4.242;2023-11-21T13:15:23;3.65;;;1.98;;
36691;SDS011;22678;52.052;4.242;2023-11-21T13:17:52;3.70;;;1.08;;
36691;SDS011;22678;52.052;4.242;2023-11-21T13:20:18;4.55;;;2.08;;
36691;SDS011;22678;52.052;4.242;2023-11-21T13:22:54;3.47;;;1.02;;
36691;SDS011;22678;52.052;4.242;2023-11-21T13:25:24;5.95;;;1.05;;
36691;SDS011;22678;52.052;4.242;2023-11-21T13:27:57;14.93;;;1.55;;
36691;SDS011;22678;52.052;4.242;2023-11-21T13:30:27;2.88;;;1.35;;
36691;SDS011;22678;52.052;4.242;2023-11-21T13:32:58;7.60;;;1.58;;
36691;SDS011;22678;52.052;4.242;2023-11-21T13:35:30;6.45;;;2.13;;
36691;SDS011;22678;52.052;4.242;2023-11-21T13:38:06;5.88;;;0.90;;
36691;SDS011;22678;52.052;4.242;2023-11-21T13:40:34;3.67;;;0.93;;
36691;SDS011;22678;52.052;4.242;2023-11-21T13:43:11;3.40;;;1.23;;
36691;SDS011;22678;52.052;4.242;2023-11-21T13:45:40;3.17;;;1.60;;
36691;SDS011;22678;52.052;4.242;2023-11-21T13:48:07;3.53;;;1.50;;
36691;SDS011;22678;52.052;4.242;2023-11-21T13:50:41;4.90;;;1.38;;
36691;SDS011;22678;52.052;4.242;2023-11-21T13:53:20;3.45;;;0.77;;
36691;SDS011;22678;52.052;4.242;2023-11-21T13:55:51;2.63;;;0.75;;
36691;SDS011;22678;52.052;4.242;2023-11-21T13:58:22;3.13;;;0.98;;
36691;SDS011;22678;52.052;4.242;2023-11-21T14:01:09;2.50;;;0.52;;
36691;SDS011;22678;52.052;4.242;2023-11-21T14:03:55;2.83;;;0.60;;
36691;SDS011;22678;52.052;4.242;2023-11-21T14:06:45;2.45;;;0.22;;
36691;SDS011;22678;52.052;4.242;2023-11-21T14:09:18;2.47;;;0.70;;
36691;SDS011;22678;52.052;4.242;2023-11-21T14:11:51;0.93;;;0.28;;
36691;SDS011;22678;52.052;4.242;2023-11-21T14:14:18;2.40;;;1.30;;
36691;SDS011;22678;52.052;4.242;2023-11-21T14:16:44;4.95;;;1.40;;
36691;SDS011;22678;52.052;4.242;2023-11-21T14:19:10;4.93;;;1.52;;
36691;SDS011;22678;52.052;4.242;2023-11-21T14:21:41;3.25;;;1.58;;
36691;SDS011;22678;52.052;4.242;2023-11-21T14:24:10;2.83;;;0.88;;
36691;SDS011;22678;52.052;4.242;2023-11-21T14:26:38;5.10;;;1.33;;
36691;SDS011;22678;52.052;4.242;2023-11-21T14:29:04;3.90;;;1.10;;
36691;SDS011;22678;52.052;4.242;2023-11-21T14:31:30;5.15;;;1.60;;
36691;SDS011;22678;52.052;4.242;2023-11-21T14:33:56;2.60;;;0.95;;
36691;SDS011;22678;52.052;4.242;2023-11-21T14:36:22;3.47;;;1.08;;
36691;SDS011;22678;52.052;4.242;2023-11-21T14:38:49;5.60;;;1.50;;
36691;SDS011;22678;52.052;4.242;2023-11-21T14:41:14;6.93;;;2.22;;
36691;SDS011;22678;52.052;4.242;2023-11-21T14:43:39;3.72;;;1.15;;
36691;SDS011;22678;52.052;4.242;2023-11-21T14:46:06;5.32;;;1.27;;
36691;SDS011;22678;52.052;4.242;2023-11-21T14:48:35;7.03;;;1.38;;
36691;SDS011;22678;52.052;4.242;2023-11-21T14:51:12;3.17;;;1.30;;
36691;SDS011;22678;52.052;4.242;2023-11-21T14:53:58;6.10;;;2.95;;
36691;SDS011;22678;52.052;4.242;2023-11-21T14:56:35;6.00;;;2.35;;
36691;SDS011;22678;52.052;4.242;2023-11-21T14:59:02;6.30;;;2.30;;
36691;SDS011;22678;52.052;4.242;2023-11-21T15:01:33;6.03;;;2.37;;
36691;SDS011;22678;52.052;4.242;2023-11-21T15:04:10;4.80;;;1.85;;
36691;SDS011;22678;52.052;4.242;2023-11-21T15:06:54;4.82;;;2.30;;
36691;SDS011;22678;52.052;4.242;2023-11-21T15:09:23;10.60;;;3.58;;
36691;SDS011;22678;52.052;4.242;2023-11-21T15:12:03;8.40;;;3.38;;
36691;SDS011;22678;52.052;4.242;2023-11-21T15:14:50;9.63;;;3.08;;
36691;SDS011;22678;52.052;4.242;2023-11-21T15:17:21;11.15;;;3.55;;
36691;SDS011;22678;52.052;4.242;2023-11-21T15:19:55;7.22;;;3.03;;
36691;SDS011;22678;52.052;4.242;2023-11-21T15:22:21;7.07;;;3.25;;
36691;SDS011;22678;52.052;4.242;2023-11-21T15:24:47;8.23;;;3.95;;
36691;SDS011;22678;52.052;4.242;2023-11-21T15:27:14;10.48;;;3.20;;
36691;SDS011;22678;52.052;4.242;2023-11-21T15:29:40;7.32;;;3.72;;
36691;SDS011;22678;52.052;4.242;2023-11-21T15:32:06;8.80;;;4.43;;